sensor_id;sensor_type;location;lat;lon;timestamp;P1;durP1;ratioP1;P2;durP2;ratioP2
61960;SDS011;47923;42.506;24.192;2022-10-31T15:10:37;26.52;;;15.48;;
61960;SDS011;47923;42.506;24.192;2022-10-31T15:20:05;20.30;;;11.68;;
61960;SDS011;47923;42.506;24.192;2022-10-31T15:22:33;23.50;;;13.10;;
61960;SDS011;47923;42.506;24.192;2022-10-31T15:24:59;17.48;;;10.65;;
61960;SDS011;47923;42.506;24.192;2022-10-31T15:27:24;19.65;;;10.18;;
61960;SDS011;47923;42.506;24.192;2022-10-31T15:29:54;17.30;;;8.85;;
61960;SDS011;47923;42.506;24.192;2022-10-31T15:32:24;15.70;;;7.53;;
61960;SDS011;47923;42.506;24.192;2022-10-31T15:34:52;13.23;;;7.03;;
61960;SDS011;47923;42.506;24.192;2022-10-31T15:37:19;11.55;;;6.68;;
61960;SDS011;47923;42.506;24.192;2022-10-31T15:39:47;12.85;;;6.40;;
61960;SDS011;47923;42.506;24.192;2022-10-31T15:42:21;16.02;;;5.78;;
61960;SDS011;47923;42.506;24.192;2022-10-31T15:45:25;16.52;;;6.13;;
61960;SDS011;47923;42.506;24.192;2022-10-31T15:48:02;16.50;;;5.47;;
61960;SDS011;47923;42.506;24.192;2022-10-31T15:50:37;15.25;;;5.57;;
61960;SDS011;47923;42.506;24.192;2022-10-31T15:53:52;13.25;;;4.20;;
61960;SDS011;47923;42.506;24.192;2022-10-31T15:56:26;14.48;;;4.68;;
61960;SDS011;47923;42.506;24.192;2022-10-31T15:58:54;17.63;;;5.60;;
61960;SDS011;47923;42.506;24.192;2022-10-31T16:01:23;9.50;;;5.28;;
61960;SDS011;47923;42.506;24.192;2022-10-31T16:03:57;14.05;;;4.93;;
61960;SDS011;47923;42.506;24.192;2022-10-31T16:06:40;12.95;;;5.25;;
61960;SDS011;47923;42.506;24.192;2022-10-31T16:09:21;16.58;;;10.18;;
61960;SDS011;47923;42.506;24.192;2022-10-31T16:11:48;17.30;;;7.75;;
61960;SDS011;47923;42.506;24.192;2022-10-31T16:14:32;10.02;;;4.88;;
61960;SDS011;47923;42.506;24.192;2022-10-31T16:17:05;15.13;;;5.35;;
61960;SDS011;47923;42.506;24.192;2022-10-31T16:19:43;11.45;;;4.30;;
61960;SDS011;47923;42.506;24.192;2022-10-31T16:22:19;11.18;;;5.18;;
61960;SDS011;47923;42.506;24.192;2022-10-31T16:25:01;13.20;;;4.55;;
61960;SDS011;47923;42.506;24.192;2022-10-31T16:27:31;11.70;;;4.53;;
61960;SDS011;47923;42.506;24.192;2022-10-31T16:29:59;16.30;;;8.80;;
61960;SDS011;47923;42.506;24.192;2022-10-31T16:32:33;17.25;;;8.82;;
61960;SDS011;47923;42.506;24.192;2022-10-31T16:37:39;17.63;;;9.68;;
61960;SDS011;47923;42.506;24.192;2022-10-31T16:40:05;21.00;;;10.02;;
61960;SDS011;47923;42.506;24.192;2022-10-31T16:42:31;25.00;;;12.60;;
61960;SDS011;47923;42.506;24.192;2022-10-31T16:44:59;19.92;;;10.02;;
61960;SDS011;47923;42.506;24.192;2022-10-31T16:47:25;19.02;;;11.05;;
61960;SDS011;47923;42.506;24.192;2022-10-31T16:49:50;17.95;;;12.02;;
61960;SDS011;47923;42.506;24.192;2022-10-31T16:52:16;14.80;;;7.40;;
61960;SDS011;47923;42.506;24.192;2022-10-31T16:54:42;17.48;;;8.13;;
61960;SDS011;47923;42.506;24.192;2022-10-31T16:57:10;13.35;;;8.02;;
61960;SDS011;47923;42.506;24.192;2022-10-31T16:59:40;15.88;;;7.57;;
61960;SDS011;47923;42.506;24.192;2022-10-31T17:02:09;10.98;;;7.05;;
61960;SDS011;47923;42.506;24.192;2022-10-31T17:04:39;12.70;;;7.03;;
61960;SDS011;47923;42.506;24.192;2022-10-31T17:07:04;26.17;;;9.93;;
61960;SDS011;47923;42.506;24.192;2022-10-31T17:09:30;17.70;;;7.10;;
61960;SDS011;47923;42.506;24.192;2022-10-31T17:11:55;15.98;;;8.35;;
61960;SDS011;47923;42.506;24.192;2022-10-31T17:14:21;18.63;;;10.30;;
61960;SDS011;47923;42.506;24.192;2022-10-31T17:16:47;20.60;;;10.40;;
61960;SDS011;47923;42.506;24.192;2022-10-31T17:19:13;20.05;;;9.98;;
61960;SDS011;47923;42.506;24.192;2022-10-31T17:21:39;17.13;;;11.05;;
61960;SDS011;47923;42.506;24.192;2022-10-31T17:24:10;26.92;;;19.58;;
61960;SDS011;47923;42.506;24.192;2022-10-31T17:26:38;22.58;;;15.48;;
61960;SDS011;47923;42.506;24.192;2022-10-31T17:29:04;29.35;;;15.25;;
61960;SDS011;47923;42.506;24.192;2022-10-31T17:31:33;22.25;;;11.85;;
61960;SDS011;47923;42.506;24.192;2022-10-31T17:34:03;17.55;;;9.75;;
61960;SDS011;47923;42.506;24.192;2022-10-31T17:36:31;15.50;;;9.85;;
61960;SDS011;47923;42.506;24.192;2022-10-31T17:39:03;17.85;;;10.30;;
61960;SDS011;47923;42.506;24.192;2022-10-31T17:41:33;23.13;;;14.07;;
61960;SDS011;47923;42.506;24.192;2022-10-31T17:44:01;22.48;;;15.07;;
61960;SDS011;47923;42.506;24.192;2022-10-31T17:46:30;28.77;;;17.23;;
61960;SDS011;47923;42.506;24.192;2022-10-31T17:48:56;24.50;;;15.82;;
61960;SDS011;47923;42.506;24.192;2022-10-31T17:51:22;23.58;;;14.73;;
61960;SDS011;47923;42.506;24.192;2022-10-31T17:56:52;20.38;;;12.23;;
61960;SDS011;47923;42.506;24.192;2022-10-31T18:02:40;11.00;;;4.53;;
61960;SDS011;47923;42.506;24.192;2022-10-31T18:05:08;10.82;;;4.88;;
61960;SDS011;47923;42.506;24.192;2022-10-31T18:07:34;13.98;;;6.10;;
61960;SDS011;47923;42.506;24.192;2022-10-31T18:10:03;9.70;;;5.25;;
61960;SDS011;47923;42.506;24.192;2022-10-31T18:12:29;16.73;;;7.30;;
61960;SDS011;47923;42.506;24.192;2022-10-31T18:14:56;14.15;;;7.28;;
61960;SDS011;47923;42.506;24.192;2022-10-31T18:17:22;14.77;;;7.10;;
61960;SDS011;47923;42.506;24.192;2022-10-31T18:19:48;10.63;;;5.10;;
61960;SDS011;47923;42.506;24.192;2022-10-31T18:22:16;12.55;;;3.72;;
61960;SDS011;47923;42.506;24.192;2022-10-31T18:24:42;9.95;;;4.03;;
61960;SDS011;47923;42.506;24.192;2022-10-31T18:27:07;8.02;;;3.25;;
61960;SDS011;47923;42.506;24.192;2022-10-31T18:29:33;7.93;;;4.45;;
61960;SDS011;47923;42.506;24.192;2022-10-31T18:31:58;12.70;;;4.35;;
61960;SDS011;47923;42.506;24.192;2022-10-31T18:34:33;10.57;;;5.85;;
61960;SDS011;47923;42.506;24.192;2022-10-31T18:37:03;15.27;;;7.03;;
61960;SDS011;47923;42.506;24.192;2022-10-31T18:39:29;13.63;;;7.57;;
61960;SDS011;47923;42.506;24.192;2022-10-31T18:41:55;30.67;;;18.50;;
61960;SDS011;47923;42.506;24.192;2022-10-31T18:44:22;25.48;;;16.65;;
61960;SDS011;47923;42.506;24.192;2022-10-31T18:46:50;26.20;;;18.23;;
61960;SDS011;47923;42.506;24.192;2022-10-31T18:49:15;25.73;;;15.60;;
61960;SDS011;47923;42.506;24.192;2022-10-31T18:51:46;24.83;;;14.82;;
61960;SDS011;47923;42.506;24.192;2022-10-31T18:54:15;26.33;;;15.45;;
61960;SDS011;47923;42.506;24.192;2022-10-31T18:56:40;21.75;;;12.68;;
61960;SDS011;47923;42.506;24.192;2022-10-31T18:59:06;23.73;;;13.85;;
61960;SDS011;47923;42.506;24.192;2022-10-31T19:01:32;22.00;;;13.48;;
61960;SDS011;47923;42.506;24.192;2022-10-31T19:04:00;18.23;;;11.95;;
61960;SDS011;47923;42.506;24.192;2022-10-31T19:06:26;19.48;;;11.98;;
61960;SDS011;47923;42.506;24.192;2022-10-31T19:08:56;21.25;;;11.45;;
61960;SDS011;47923;42.506;24.192;2022-10-31T19:11:25;25.50;;;14.88;;
61960;SDS011;47923;42.506;24.192;2022-10-31T19:13:50;22.42;;;15.05;;
61960;SDS011;47923;42.506;24.192;2022-10-31T19:16:16;27.33;;;16.02;;
61960;SDS011;47923;42.506;24.192;2022-10-31T19:18:42;24.42;;;18.33;;
61960;SDS011;47923;42.506;24.192;2022-10-31T19:21:13;38.72;;;25.05;;
61960;SDS011;47923;42.506;24.192;2022-10-31T19:23:40;34.75;;;22.52;;
61960;SDS011;47923;42.506;24.192;2022-10-31T19:26:05;31.60;;;20.30;;
61960;SDS011;47923;42.506;24.192;2022-10-31T19:28:32;21.98;;;13.35;;
61960;SDS011;47923;42.506;24.192;2022-10-31T19:30:59;20.60;;;13.10;;
61960;SDS011;47923;42.506;24.192;2022-10-31T19:33:25;18.52;;;11.05;;
61960;SDS011;47923;42.506;24.192;2022-10-31T19:35:56;16.45;;;7.50;;
61960;SDS011;47923;42.506;24.192;2022-10-31T19:38:24;15.35;;;5.88;;
61960;SDS011;47923;42.506;24.192;2022-10-31T19:40:54;12.88;;;5.25;;
61960;SDS011;47923;42.506;24.192;2022-10-31T19:43:23;11.80;;;5.47;;
61960;SDS011;47923;42.506;24.192;2022-10-31T19:45:55;12.73;;;6.00;;
61960;SDS011;47923;42.506;24.192;2022-10-31T19:48:22;14.17;;;7.60;;
61960;SDS011;47923;42.506;24.192;2022-10-31T19:50:48;13.45;;;7.32;;
61960;SDS011;47923;42.506;24.192;2022-10-31T19:53:14;13.35;;;7.25;;
61960;SDS011;47923;42.506;24.192;2022-10-31T19:55:39;20.83;;;9.18;;
61960;SDS011;47923;42.506;24.192;2022-10-31T19:58:05;27.35;;;12.73;;
61960;SDS011;47923;42.506;24.192;2022-10-31T20:00:31;28.38;;;11.77;;
61960;SDS011;47923;42.506;24.192;2022-10-31T20:02:57;26.25;;;12.50;;
61960;SDS011;47923;42.506;24.192;2022-10-31T20:05:23;24.08;;;15.02;;
61960;SDS011;47923;42.506;24.192;2022-10-31T20:07:49;21.65;;;14.93;;
61960;SDS011;47923;42.506;24.192;2022-10-31T20:10:15;28.10;;;15.65;;
61960;SDS011;47923;42.506;24.192;2022-10-31T20:12:41;25.55;;;16.38;;
61960;SDS011;47923;42.506;24.192;2022-10-31T20:15:06;23.67;;;14.27;;
61960;SDS011;47923;42.506;24.192;2022-10-31T20:17:33;23.70;;;12.50;;
61960;SDS011;47923;42.506;24.192;2022-10-31T20:19:59;19.67;;;11.23;;
61960;SDS011;47923;42.506;24.192;2022-10-31T20:22:49;10.68;;;5.82;;
61960;SDS011;47923;42.506;24.192;2022-10-31T20:25:14;18.80;;;10.23;;
61960;SDS011;47923;42.506;24.192;2022-10-31T20:27:40;18.20;;;9.00;;
61960;SDS011;47923;42.506;24.192;2022-10-31T20:30:06;19.48;;;9.98;;
61960;SDS011;47923;42.506;24.192;2022-10-31T20:32:34;21.85;;;10.05;;
61960;SDS011;47923;42.506;24.192;2022-10-31T20:35:00;15.32;;;9.00;;
61960;SDS011;47923;42.506;24.192;2022-10-31T20:37:25;17.13;;;10.50;;
61960;SDS011;47923;42.506;24.192;2022-10-31T20:39:53;20.75;;;12.38;;
61960;SDS011;47923;42.506;24.192;2022-10-31T20:42:22;19.10;;;11.70;;
61960;SDS011;47923;42.506;24.192;2022-10-31T20:44:50;21.45;;;13.27;;
61960;SDS011;47923;42.506;24.192;2022-10-31T20:47:23;22.63;;;13.73;;
61960;SDS011;47923;42.506;24.192;2022-10-31T20:49:48;20.58;;;14.15;;
61960;SDS011;47923;42.506;24.192;2022-10-31T20:52:14;21.35;;;12.98;;
61960;SDS011;47923;42.506;24.192;2022-10-31T20:54:39;22.33;;;13.30;;
61960;SDS011;47923;42.506;24.192;2022-10-31T20:57:04;22.75;;;13.23;;
61960;SDS011;47923;42.506;24.192;2022-10-31T20:59:30;23.08;;;13.35;;
61960;SDS011;47923;42.506;24.192;2022-10-31T21:01:55;21.33;;;13.13;;
61960;SDS011;47923;42.506;24.192;2022-10-31T21:04:21;20.55;;;13.15;;
61960;SDS011;47923;42.506;24.192;2022-10-31T21:06:47;25.20;;;13.60;;
61960;SDS011;47923;42.506;24.192;2022-10-31T21:09:13;21.35;;;12.57;;
61960;SDS011;47923;42.506;24.192;2022-10-31T21:11:38;21.23;;;12.02;;
61960;SDS011;47923;42.506;24.192;2022-10-31T21:14:04;19.35;;;11.43;;
61960;SDS011;47923;42.506;24.192;2022-10-31T21:16:30;18.65;;;11.60;;
61960;SDS011;47923;42.506;24.192;2022-10-31T21:19:00;21.73;;;12.82;;
61960;SDS011;47923;42.506;24.192;2022-10-31T21:21:28;21.88;;;12.00;;
61960;SDS011;47923;42.506;24.192;2022-10-31T21:23:56;24.33;;;13.68;;
61960;SDS011;47923;42.506;24.192;2022-10-31T21:26:25;24.27;;;13.30;;
61960;SDS011;47923;42.506;24.192;2022-10-31T21:29:02;25.95;;;16.02;;
61960;SDS011;47923;42.506;24.192;2022-10-31T21:31:36;31.88;;;21.75;;
61960;SDS011;47923;42.506;24.192;2022-10-31T21:34:02;28.35;;;17.88;;
61960;SDS011;47923;42.506;24.192;2022-10-31T21:36:28;28.48;;;19.83;;
61960;SDS011;47923;42.506;24.192;2022-10-31T21:38:59;26.02;;;15.18;;
61960;SDS011;47923;42.506;24.192;2022-10-31T21:41:43;25.30;;;14.15;;
61960;SDS011;47923;42.506;24.192;2022-10-31T21:44:08;20.53;;;11.90;;
61960;SDS011;47923;42.506;24.192;2022-10-31T21:46:41;21.05;;;11.77;;
61960;SDS011;47923;42.506;24.192;2022-10-31T21:49:29;20.45;;;10.25;;
61960;SDS011;47923;42.506;24.192;2022-10-31T21:51:56;21.27;;;10.15;;
61960;SDS011;47923;42.506;24.192;2022-10-31T21:54:24;23.67;;;11.27;;
61960;SDS011;47923;42.506;24.192;2022-10-31T21:56:57;19.95;;;9.63;;
61960;SDS011;47923;42.506;24.192;2022-10-31T21:59:23;20.27;;;10.65;;
61960;SDS011;47923;42.506;24.192;2022-10-31T22:04:36;17.80;;;9.80;;
61960;SDS011;47923;42.506;24.192;2022-10-31T22:07:01;19.60;;;10.88;;
61960;SDS011;47923;42.506;24.192;2022-10-31T22:09:44;19.17;;;10.32;;
61960;SDS011;47923;42.506;24.192;2022-10-31T22:12:20;20.23;;;9.45;;
61960;SDS011;47923;42.506;24.192;2022-10-31T22:14:53;14.70;;;9.55;;
61960;SDS011;47923;42.506;24.192;2022-10-31T22:17:38;19.02;;;10.30;;
61960;SDS011;47923;42.506;24.192;2022-10-31T22:20:04;14.25;;;8.95;;
61960;SDS011;47923;42.506;24.192;2022-10-31T22:22:30;14.70;;;8.50;;
61960;SDS011;47923;42.506;24.192;2022-10-31T22:24:55;14.15;;;7.63;;
61960;SDS011;47923;42.506;24.192;2022-10-31T22:27:38;16.95;;;8.00;;
61960;SDS011;47923;42.506;24.192;2022-10-31T22:30:04;17.33;;;8.55;;
61960;SDS011;47923;42.506;24.192;2022-10-31T22:32:30;18.73;;;8.48;;
61960;SDS011;47923;42.506;24.192;2022-10-31T22:34:55;20.52;;;8.30;;
61960;SDS011;47923;42.506;24.192;2022-10-31T22:37:21;13.20;;;7.43;;
61960;SDS011;47923;42.506;24.192;2022-10-31T22:39:46;13.63;;;6.55;;
61960;SDS011;47923;42.506;24.192;2022-10-31T22:42:12;15.13;;;5.60;;
61960;SDS011;47923;42.506;24.192;2022-10-31T22:44:37;12.48;;;4.85;;
61960;SDS011;47923;42.506;24.192;2022-10-31T22:47:03;11.02;;;5.20;;
61960;SDS011;47923;42.506;24.192;2022-10-31T22:49:28;13.55;;;4.85;;
61960;SDS011;47923;42.506;24.192;2022-10-31T22:51:54;10.90;;;4.88;;
61960;SDS011;47923;42.506;24.192;2022-10-31T22:54:30;10.15;;;5.07;;
61960;SDS011;47923;42.506;24.192;2022-10-31T22:57:07;11.65;;;6.75;;
61960;SDS011;47923;42.506;24.192;2022-10-31T22:59:32;12.05;;;6.18;;
61960;SDS011;47923;42.506;24.192;2022-10-31T23:01:58;9.60;;;4.78;;
61960;SDS011;47923;42.506;24.192;2022-10-31T23:04:23;9.20;;;4.70;;
61960;SDS011;47923;42.506;24.192;2022-10-31T23:06:58;9.05;;;3.95;;
61960;SDS011;47923;42.506;24.192;2022-10-31T23:09:32;13.20;;;4.80;;
61960;SDS011;47923;42.506;24.192;2022-10-31T23:11:57;10.57;;;4.15;;
61960;SDS011;47923;42.506;24.192;2022-10-31T23:14:43;9.48;;;4.32;;
61960;SDS011;47923;42.506;24.192;2022-10-31T23:17:11;10.73;;;3.75;;
61960;SDS011;47923;42.506;24.192;2022-10-31T23:19:41;10.48;;;4.57;;
61960;SDS011;47923;42.506;24.192;2022-10-31T23:22:08;11.52;;;4.40;;
61960;SDS011;47923;42.506;24.192;2022-10-31T23:24:43;12.43;;;6.15;;
61960;SDS011;47923;42.506;24.192;2022-10-31T23:27:14;12.18;;;4.78;;
61960;SDS011;47923;42.506;24.192;2022-10-31T23:35:00;12.05;;;5.00;;
61960;SDS011;47923;42.506;24.192;2022-10-31T23:37:45;10.40;;;5.53;;
61960;SDS011;47923;42.506;24.192;2022-10-31T23:40:13;15.63;;;5.50;;
61960;SDS011;47923;42.506;24.192;2022-10-31T23:42:49;9.75;;;4.90;;
61960;SDS011;47923;42.506;24.192;2022-10-31T23:45:14;15.40;;;5.30;;
61960;SDS011;47923;42.506;24.192;2022-10-31T23:47:40;14.65;;;5.45;;
61960;SDS011;47923;42.506;24.192;2022-10-31T23:50:05;14.63;;;6.25;;
61960;SDS011;47923;42.506;24.192;2022-10-31T23:52:31;15.30;;;7.35;;
61960;SDS011;47923;42.506;24.192;2022-10-31T23:54:57;15.82;;;7.63;;
61960;SDS011;47923;42.506;24.192;2022-10-31T23:57:23;16.13;;;9.52;;
